createdAt,value
2022-10-19T00:00:22.279Z,101512.20
2022-10-19T00:03:00.695Z,101513.00
2022-10-19T00:05:38.360Z,101510.80
2022-10-19T00:08:15.951Z,101513.00
2022-10-19T00:10:53.831Z,101511.60
2022-10-19T00:13:31.217Z,101508.20
2022-10-19T00:16:12.669Z,101510.60
2022-10-19T00:18:48.477Z,101510.00
2022-10-19T00:21:25.475Z,101503.60
2022-10-19T00:24:02.416Z,101499.60
2022-10-19T00:26:39.072Z,101498.60
2022-10-19T00:29:16.538Z,101495.80
2022-10-19T00:31:54.694Z,101492.80
2022-10-19T00:34:31.464Z,101493.00
2022-10-19T00:37:08.047Z,101490.40
2022-10-19T00:39:48.021Z,101490.00
2022-10-19T00:42:24.245Z,101489.60
2022-10-19T00:45:16.059Z,101482.60
2022-10-19T00:47:53.522Z,101480.60
2022-10-19T00:50:30.629Z,101481.00
2022-10-19T00:53:07.049Z,101483.20
2022-10-19T00:55:45.479Z,101481.00
2022-10-19T00:58:21.958Z,101483.00
2022-10-19T01:00:59.035Z,101483.20
2022-10-19T01:03:37.059Z,101477.80
2022-10-19T01:06:15.034Z,101474.00
2022-10-19T01:08:52.515Z,101471.20
2022-10-19T01:11:46.426Z,101473.20
2022-10-19T01:14:40.549Z,101473.00
2022-10-19T01:17:31.443Z,101472.60
2022-10-19T01:20:56.557Z,101467.40
2022-10-19T01:24:10.828Z,101469.40
2022-10-19T01:27:22.783Z,101464.60
2022-10-19T01:30:08.780Z,101460.20
2022-10-19T01:33:37.605Z,101463.00
2022-10-19T01:36:29.368Z,101456.00
2022-10-19T01:39:15.758Z,101453.60
2022-10-19T01:42:04.623Z,101452.80
2022-10-19T01:44:49.649Z,101449.80
2022-10-19T01:47:33.622Z,101450.00
2022-10-19T01:50:16.250Z,101440.80
2022-10-19T01:52:55.028Z,101441.80
2022-10-19T01:55:32.552Z,101444.00
2022-10-19T01:58:16.480Z,101439.20
2022-10-19T02:00:57.344Z,101441.40
2022-10-19T02:03:35.476Z,101438.60
2022-10-19T02:06:16.033Z,101444.60
2022-10-19T02:09:01.262Z,101443.00
2022-10-19T02:11:40.072Z,101434.00
2022-10-19T02:14:21.927Z,101431.20
2022-10-19T02:17:03.324Z,101434.00
2022-10-19T02:19:40.966Z,101432.80
2022-10-19T02:22:17.910Z,101430.60
2022-10-19T02:24:54.015Z,101428.20
2022-10-19T02:27:31.394Z,101426.40
2022-10-19T02:30:10.169Z,101428.60
2022-10-19T02:32:46.682Z,101425.40
2022-10-19T02:35:23.358Z,101427.60
2022-10-19T02:38:02.511Z,101427.20
2022-10-19T02:40:44.828Z,101430.40
2022-10-19T02:43:24.989Z,101422.80
2022-10-19T02:46:08.077Z,101415.00
2022-10-19T02:48:46.226Z,101414.40
2022-10-19T02:51:41.157Z,101411.80
2022-10-19T02:54:17.255Z,101409.80
2022-10-19T02:56:53.731Z,101406.20
2022-10-19T02:59:29.786Z,101403.60
2022-10-19T03:02:06.589Z,101401.60
2022-10-19T03:04:43.219Z,101396.80
2022-10-19T03:07:21.947Z,101397.40
2022-10-19T03:09:57.951Z,101398.20
2022-10-19T03:12:34.966Z,101399.40
2022-10-19T03:15:18.164Z,101399.60
2022-10-19T03:17:58.036Z,101398.40
2022-10-19T03:20:34.455Z,101396.80
2022-10-19T03:23:11.286Z,101399.40
2022-10-19T03:25:48.196Z,101402.20
2022-10-19T03:28:26.283Z,101400.40
2022-10-19T03:31:02.114Z,101402.20
2022-10-19T03:33:38.626Z,101399.60
2022-10-19T03:36:30.437Z,101397.20
2022-10-19T03:39:10.211Z,101400.80
2022-10-19T03:41:46.639Z,101399.60
2022-10-19T03:44:22.365Z,101400.20
2022-10-19T03:46:57.886Z,101399.40
2022-10-19T03:49:38.052Z,101400.20
2022-10-19T03:52:17.256Z,101398.80
2022-10-19T03:54:53.981Z,101397.80
2022-10-19T03:57:30.834Z,101404.60
2022-10-19T04:00:06.775Z,101403.20
2022-10-19T04:02:47.874Z,101403.40
2022-10-19T04:05:24.608Z,101398.00
2022-10-19T04:08:01.076Z,101401.00
2022-10-19T04:10:37.725Z,101401.40
2022-10-19T04:13:14.145Z,101403.40
2022-10-19T04:15:50.121Z,101403.80
2022-10-19T04:18:26.576Z,101404.80
2022-10-19T04:21:08.170Z,101404.20
2022-10-19T04:23:45.196Z,101403.60
2022-10-19T04:26:21.384Z,101401.60
2022-10-19T04:28:59.348Z,101399.40
2022-10-19T04:31:36.491Z,101397.20
2022-10-19T04:34:11.835Z,101398.20
2022-10-19T04:36:48.387Z,101398.40
2022-10-19T04:39:25.741Z,101398.40
2022-10-19T04:42:02.547Z,101399.20
2022-10-19T04:44:37.581Z,101400.80
2022-10-19T04:47:13.977Z,101399.00
2022-10-19T04:49:49.863Z,101399.60
2022-10-19T04:52:26.759Z,101393.00
2022-10-19T04:55:03.728Z,101396.80
2022-10-19T04:57:40.636Z,101397.40
2022-10-19T05:00:22.984Z,101403.00
2022-10-19T05:02:59.484Z,101405.00
2022-10-19T05:05:36.590Z,101402.40
2022-10-19T05:08:13.543Z,101400.40
2022-10-19T05:10:50.300Z,101402.40
2022-10-19T05:13:26.939Z,101402.80
2022-10-19T05:16:10.859Z,101404.60
2022-10-19T05:18:48.998Z,101403.60
2022-10-19T05:21:26.078Z,101406.60
2022-10-19T05:24:02.936Z,101408.80
2022-10-19T05:26:38.926Z,101409.80
2022-10-19T05:29:18.377Z,101408.00
2022-10-19T05:31:54.688Z,101408.00
2022-10-19T05:34:31.641Z,101401.80
2022-10-19T05:37:07.851Z,101399.40
2022-10-19T05:39:44.770Z,101403.80
2022-10-19T05:42:21.481Z,101404.40
2022-10-19T05:44:58.016Z,101404.00
2022-10-19T05:47:35.806Z,101400.80
2022-10-19T05:50:14.220Z,101401.20
2022-10-19T05:52:50.424Z,101400.60
2022-10-19T05:55:26.899Z,101402.80
2022-10-19T05:58:02.686Z,101405.80
2022-10-19T06:00:39.014Z,101406.80
2022-10-19T06:03:15.890Z,101401.80
2022-10-19T06:05:52.841Z,101400.80
2022-10-19T06:08:30.023Z,101401.00
2022-10-19T06:11:15.477Z,101398.60
2022-10-19T06:13:55.347Z,101407.60
2022-10-19T06:16:33.227Z,101411.40
2022-10-19T06:19:09.430Z,101412.60
2022-10-19T06:21:47.047Z,101419.80
2022-10-19T06:24:23.518Z,101415.80
2022-10-19T06:26:59.953Z,101416.20
2022-10-19T06:29:37.123Z,101421.20
2022-10-19T06:32:14.006Z,101426.80
2022-10-19T06:34:53.062Z,101431.80
2022-10-19T06:37:32.050Z,101430.00
2022-10-19T06:40:11.489Z,101431.60
2022-10-19T06:42:48.899Z,101436.60
2022-10-19T06:45:26.203Z,101437.80
2022-10-19T06:48:07.633Z,101443.80
2022-10-19T06:50:44.628Z,101446.40
2022-10-19T06:53:21.564Z,101450.20
2022-10-19T06:55:59.139Z,101450.20
2022-10-19T06:58:37.252Z,101452.40
2022-10-19T07:01:15.051Z,101449.80
2022-10-19T07:03:52.450Z,101452.20
2022-10-19T07:06:29.729Z,101452.60
2022-10-19T07:09:05.826Z,101452.00
2022-10-19T07:11:45.879Z,101453.80
2022-10-19T07:14:24.803Z,101449.00
2022-10-19T07:17:01.742Z,101444.60
2022-10-19T07:19:38.060Z,101447.00
2022-10-19T07:22:19.100Z,101443.80
2022-10-19T07:24:58.403Z,101443.00
2022-10-19T07:27:37.619Z,101444.80
2022-10-19T07:30:17.240Z,101444.20
2022-10-19T07:32:53.149Z,101446.20
2022-10-19T07:35:30.358Z,101444.60
2022-10-19T07:38:07.126Z,101446.60
2022-10-19T07:40:46.417Z,101441.60
2022-10-19T07:43:24.732Z,101445.80
2022-10-19T07:46:08.066Z,101448.20
2022-10-19T07:48:43.856Z,101447.80
2022-10-19T07:51:21.226Z,101451.80
2022-10-19T07:53:58.054Z,101447.20
2022-10-19T07:56:35.033Z,101449.20
2022-10-19T07:59:12.537Z,101446.20
2022-10-19T08:01:49.744Z,101448.80
2022-10-19T08:07:22.652Z,101447.60
2022-10-19T08:09:59.409Z,101447.80
2022-10-19T08:12:37.571Z,101448.00
2022-10-19T08:15:16.719Z,101443.80
2022-10-19T08:17:52.939Z,101446.40
2022-10-19T08:20:29.814Z,101448.00
2022-10-19T08:23:05.788Z,101444.80
2022-10-19T08:25:42.320Z,101447.00
2022-10-19T08:28:18.178Z,101448.80
2022-10-19T08:30:58.360Z,101445.00
2022-10-19T08:33:34.693Z,101444.40
2022-10-19T08:36:15.625Z,101445.60
2022-10-19T08:38:52.609Z,101444.60
2022-10-19T08:41:40.627Z,101442.60
2022-10-19T08:45:11.184Z,101442.20
2022-10-19T08:48:15.599Z,101438.60
2022-10-19T08:50:53.562Z,101436.20
2022-10-19T08:53:48.297Z,101434.80
2022-10-19T08:56:51.948Z,101436.00
2022-10-19T08:59:42.681Z,101432.60
2022-10-19T09:02:31.025Z,101436.00
2022-10-19T09:05:21.759Z,101431.00
2022-10-19T09:08:00.114Z,101428.60
2022-10-19T09:10:39.323Z,101430.00
2022-10-19T09:13:41.477Z,101427.60
2022-10-19T09:16:29.697Z,101428.40
2022-10-19T09:19:14.268Z,101429.20
2022-10-19T09:21:56.432Z,101428.60
2022-10-19T09:24:45.157Z,101431.00
2022-10-19T09:27:29.299Z,101429.00
2022-10-19T09:30:17.525Z,101426.20
2022-10-19T09:33:00.738Z,101422.60
2022-10-19T09:35:45.600Z,101425.20
2022-10-19T09:38:23.691Z,101426.00
2022-10-19T09:41:08.597Z,101422.60
2022-10-19T09:43:53.700Z,101423.40
2022-10-19T09:46:52.453Z,101424.20
2022-10-19T09:49:48.670Z,101427.80
2022-10-19T09:52:39.602Z,101433.00
2022-10-19T09:55:41.133Z,101434.20
2022-10-19T09:58:30.503Z,101430.20
2022-10-19T10:01:09.692Z,101431.00
2022-10-19T10:03:46.969Z,101431.40
2022-10-19T10:06:26.557Z,101430.60
2022-10-19T10:09:04.231Z,101430.60
2022-10-19T10:11:42.528Z,101427.40
2022-10-19T10:14:28.094Z,101425.80
2022-10-19T10:17:07.627Z,101421.80
2022-10-19T10:20:04.304Z,101422.20
2022-10-19T10:22:41.828Z,101421.00
2022-10-19T10:25:27.544Z,101422.20
2022-10-19T10:28:19.670Z,101418.80
2022-10-19T10:31:03.739Z,101425.20
2022-10-19T10:33:45.682Z,101425.20
2022-10-19T10:36:26.017Z,101426.00
2022-10-19T10:39:10.713Z,101422.60
2022-10-19T10:41:53.042Z,101419.20
2022-10-19T10:44:31.869Z,101418.80
2022-10-19T10:47:16.236Z,101416.00
2022-10-19T10:50:02.932Z,101412.60
2022-10-19T10:52:58.941Z,101406.80
2022-10-19T10:55:37.842Z,101407.20
2022-10-19T10:58:25.498Z,101396.40
2022-10-19T11:01:07.622Z,101395.80
2022-10-19T11:03:59.855Z,101385.00
2022-10-19T11:06:44.620Z,101380.80
2022-10-19T11:09:37.684Z,101377.40
2022-10-19T11:12:18.463Z,101371.60
2022-10-19T11:15:06.052Z,101367.60
2022-10-19T11:18:03.538Z,101362.80
2022-10-19T11:20:49.322Z,101360.40
2022-10-19T11:23:39.780Z,101361.20
2022-10-19T11:26:34.316Z,101360.60
2022-10-19T11:29:39.942Z,101358.40
2022-10-19T11:32:29.932Z,101348.60
2022-10-19T11:35:33.929Z,101341.60
2022-10-19T11:38:31.456Z,101336.80
2022-10-19T11:41:35.440Z,101333.20
2022-10-19T11:45:05.623Z,101335.00
2022-10-19T11:48:09.730Z,101321.60
2022-10-19T11:51:16.878Z,101317.60
2022-10-19T11:54:21.943Z,101308.40
2022-10-19T11:57:10.560Z,101310.20
2022-10-19T12:00:15.137Z,101308.60
2022-10-19T12:04:00.445Z,101304.00
2022-10-19T12:06:48.719Z,101302.40
2022-10-19T12:12:37.922Z,101292.40
2022-10-19T12:15:35.968Z,101292.60
2022-10-19T12:18:32.434Z,101288.20
2022-10-19T12:21:15.771Z,101283.80
2022-10-19T12:23:54.121Z,101281.20
2022-10-19T12:26:33.950Z,101282.80
2022-10-19T12:29:19.024Z,101279.40
2022-10-19T12:31:56.563Z,101275.20
2022-10-19T12:34:52.297Z,101273.00
2022-10-19T12:37:42.256Z,101272.80
2022-10-19T12:40:34.358Z,101261.40
2022-10-19T12:43:22.072Z,101263.40
2022-10-19T12:46:11.287Z,101253.80
2022-10-19T12:48:47.437Z,101251.00
2022-10-19T12:51:24.844Z,101248.20
2022-10-19T12:54:15.341Z,101249.80
2022-10-19T12:56:59.081Z,101245.00
2022-10-19T12:59:38.593Z,101247.40
2022-10-19T13:02:34.345Z,101241.60
2022-10-19T13:05:23.607Z,101241.40
2022-10-19T13:08:00.200Z,101232.20
2022-10-19T13:10:38.007Z,101231.80
2022-10-19T13:13:57.714Z,101232.20
2022-10-19T13:17:06.005Z,101225.00
2022-10-19T13:19:43.880Z,101225.20
2022-10-19T13:22:35.171Z,101224.20
2022-10-19T13:25:33.297Z,101223.80
2022-10-19T13:28:39.897Z,101223.80
2022-10-19T13:31:35.070Z,101217.80
2022-10-19T13:34:20.202Z,101213.20
2022-10-19T13:37:14.643Z,101212.00
2022-10-19T13:39:52.547Z,101206.40
2022-10-19T13:42:33.372Z,101206.20
2022-10-19T13:45:24.694Z,101204.60
2022-10-19T13:48:13.954Z,101203.20
2022-10-19T13:50:57.773Z,101195.40
2022-10-19T13:53:48.123Z,101198.20
2022-10-19T13:56:54.846Z,101196.00
2022-10-19T14:00:22.294Z,101192.60
2022-10-19T14:03:19.983Z,101192.00
2022-10-19T14:06:28.693Z,101193.60
2022-10-19T14:10:03.687Z,101192.60
2022-10-19T14:12:45.797Z,101190.60
2022-10-19T14:15:39.163Z,101186.60
2022-10-19T14:18:37.547Z,101184.40
2022-10-19T14:21:15.370Z,101180.00
2022-10-19T14:23:52.047Z,101179.20
2022-10-19T14:26:32.712Z,101178.60
2022-10-19T14:29:09.321Z,101177.40
2022-10-19T14:31:46.026Z,101180.40
2022-10-19T14:34:23.197Z,101180.00
2022-10-19T14:36:59.069Z,101183.20
2022-10-19T14:39:38.539Z,101182.40
2022-10-19T14:42:17.154Z,101183.00
2022-10-19T14:44:53.095Z,101178.20
2022-10-19T14:47:30.474Z,101177.20
2022-10-19T14:50:07.221Z,101176.40
2022-10-19T14:52:45.580Z,101171.40
2022-10-19T14:55:28.694Z,101173.60
2022-10-19T14:58:06.984Z,101174.80
2022-10-19T15:00:45.079Z,101169.00
2022-10-19T15:03:31.105Z,101174.80
2022-10-19T15:06:16.521Z,101173.40
2022-10-19T15:08:58.294Z,101173.80
2022-10-19T15:11:42.952Z,101173.00
2022-10-19T15:14:24.478Z,101173.80
2022-10-19T15:17:05.294Z,101174.80
2022-10-19T15:19:47.824Z,101176.00
2022-10-19T15:22:32.522Z,101173.40
2022-10-19T15:25:30.036Z,101177.00
2022-10-19T15:28:39.001Z,101175.00
2022-10-19T15:31:29.212Z,101179.60
2022-10-19T15:34:07.894Z,101182.40
2022-10-19T15:36:58.426Z,101183.00
2022-10-19T15:39:42.306Z,101183.60
2022-10-19T15:42:41.347Z,101177.20
2022-10-19T15:45:39.190Z,101181.40
2022-10-19T15:48:50.073Z,101180.00
2022-10-19T15:51:47.853Z,101179.40
2022-10-19T15:54:25.874Z,101176.40
2022-10-19T15:57:02.976Z,101179.20
2022-10-19T15:59:39.101Z,101173.00
2022-10-19T16:02:25.487Z,101166.60
2022-10-19T16:05:02.273Z,101172.60
2022-10-19T16:07:42.437Z,101174.80
2022-10-19T16:10:24.375Z,101177.80
2022-10-19T16:13:00.966Z,101176.80
2022-10-19T16:15:37.719Z,101173.00
2022-10-19T16:18:15.720Z,101175.20
2022-10-19T16:20:52.445Z,101177.20
2022-10-19T16:23:29.157Z,101180.20
2022-10-19T16:26:05.689Z,101177.40
2022-10-19T16:28:42.723Z,101174.80
2022-10-19T16:31:19.922Z,101177.20
2022-10-19T16:33:56.471Z,101179.60
2022-10-19T16:36:32.343Z,101178.60
2022-10-19T16:39:08.746Z,101183.40
2022-10-19T16:41:46.228Z,101177.20
2022-10-19T16:44:24.100Z,101176.80
2022-10-19T16:47:02.560Z,101180.40
2022-10-19T16:49:39.628Z,101178.20
2022-10-19T16:52:17.601Z,101181.00
2022-10-19T16:54:54.250Z,101183.20
2022-10-19T16:57:30.585Z,101183.80
2022-10-19T17:00:07.384Z,101188.20
2022-10-19T17:02:45.804Z,101188.80
2022-10-19T17:05:23.077Z,101188.20
2022-10-19T17:07:59.704Z,101190.20
2022-10-19T17:10:35.666Z,101188.80
2022-10-19T17:13:11.670Z,101187.60
2022-10-19T17:15:49.043Z,101192.20
2022-10-19T17:18:25.789Z,101196.00
2022-10-19T17:21:06.102Z,101201.20
2022-10-19T17:23:41.193Z,101200.80
2022-10-19T17:26:19.399Z,101203.40
2022-10-19T17:28:55.696Z,101206.20
2022-10-19T17:31:32.548Z,101209.00
2022-10-19T17:34:09.445Z,101215.60
2022-10-19T17:36:48.555Z,101216.80
2022-10-19T17:39:29.141Z,101220.60
2022-10-19T17:42:07.230Z,101221.00
2022-10-19T17:44:43.624Z,101221.40
2022-10-19T17:47:20.505Z,101223.80
2022-10-19T17:49:57.125Z,101222.80
2022-10-19T17:52:34.191Z,101223.20
2022-10-19T17:55:13.300Z,101225.20
2022-10-19T17:57:49.981Z,101226.20
2022-10-19T18:00:26.541Z,101228.80
2022-10-19T18:03:02.968Z,101231.00
2022-10-19T18:05:40.841Z,101234.40
2022-10-19T18:08:18.190Z,101236.80
2022-10-19T18:10:59.008Z,101232.80
2022-10-19T18:16:14.555Z,101225.20
2022-10-19T18:18:52.176Z,101223.00
2022-10-19T18:21:30.711Z,101223.80
2022-10-19T18:24:12.750Z,101225.00
2022-10-19T18:26:52.855Z,101223.80
2022-10-19T18:29:31.118Z,101219.00
2022-10-19T18:32:07.826Z,101222.40
2022-10-19T18:34:44.012Z,101223.20
2022-10-19T18:37:21.095Z,101225.20
2022-10-19T18:39:57.244Z,101228.60
2022-10-19T18:42:34.333Z,101232.00
2022-10-19T18:45:15.181Z,101232.20
2022-10-19T18:47:51.972Z,101224.20
2022-10-19T18:50:28.573Z,101222.40
2022-10-19T18:53:05.076Z,101225.20
2022-10-19T18:55:41.561Z,101229.00
2022-10-19T18:58:17.390Z,101234.00
2022-10-19T19:00:53.355Z,101233.20
2022-10-19T19:03:30.901Z,101234.60
2022-10-19T19:06:09.392Z,101239.40
2022-10-19T19:08:45.925Z,101243.80
2022-10-19T19:11:24.811Z,101247.40
2022-10-19T19:14:03.680Z,101250.20
2022-10-19T19:16:42.820Z,101251.00
2022-10-19T19:19:24.684Z,101249.80
2022-10-19T19:22:07.835Z,101248.00
2022-10-19T19:24:46.109Z,101250.40
2022-10-19T19:27:27.254Z,101248.80
2022-10-19T19:30:08.077Z,101252.00
2022-10-19T19:32:44.433Z,101252.40
2022-10-19T19:35:23.133Z,101252.60
2022-10-19T19:37:59.637Z,101259.20
2022-10-19T19:40:35.909Z,101262.80
2022-10-19T19:43:12.025Z,101267.80
2022-10-19T19:45:57.354Z,101269.40
2022-10-19T19:48:34.065Z,101269.20
2022-10-19T19:51:12.252Z,101275.20
2022-10-19T19:53:49.758Z,101278.00
2022-10-19T19:56:26.660Z,101276.00
2022-10-19T19:59:05.095Z,101278.80
2022-10-19T20:01:42.194Z,101282.00
2022-10-19T20:04:18.218Z,101282.20
2022-10-19T20:06:54.441Z,101283.00
2022-10-19T20:09:31.538Z,101284.40
2022-10-19T20:12:08.001Z,101283.20
2022-10-19T20:14:44.524Z,101287.60
2022-10-19T20:17:24.599Z,101289.00
2022-10-19T20:20:00.601Z,101292.00
2022-10-19T20:22:37.289Z,101295.40
2022-10-19T20:25:16.408Z,101292.40
2022-10-19T20:27:52.634Z,101291.40
2022-10-19T20:30:29.438Z,101295.80
2022-10-19T20:33:06.793Z,101293.20
2022-10-19T20:35:45.086Z,101299.40
2022-10-19T20:38:21.137Z,101303.40
2022-10-19T20:40:57.703Z,101306.20
2022-10-19T20:43:34.506Z,101310.00
2022-10-19T20:46:13.753Z,101316.00
2022-10-19T20:48:49.691Z,101320.40
2022-10-19T20:51:32.014Z,101319.40
2022-10-19T20:54:12.677Z,101313.40
2022-10-19T20:56:49.921Z,101313.20
2022-10-19T20:59:27.971Z,101313.00
2022-10-19T21:02:04.146Z,101310.40
2022-10-19T21:04:42.928Z,101310.60
2022-10-19T21:07:19.499Z,101314.20
2022-10-19T21:09:56.413Z,101309.40
2022-10-19T21:12:33.521Z,101313.80
2022-10-19T21:15:13.730Z,101312.00
2022-10-19T21:17:51.836Z,101310.80
2022-10-19T21:20:27.981Z,101314.40
2022-10-19T21:23:06.024Z,101312.60
2022-10-19T21:25:41.938Z,101315.80
2022-10-19T21:28:18.001Z,101317.00
2022-10-19T21:30:54.792Z,101315.00
2022-10-19T21:33:32.584Z,101318.00
2022-10-19T21:36:12.164Z,101319.40
2022-10-19T21:38:49.314Z,101326.20
2022-10-19T21:41:26.715Z,101324.60
2022-10-19T21:44:03.466Z,101327.20
2022-10-19T21:46:38.954Z,101328.00
2022-10-19T21:49:15.990Z,101327.80
2022-10-19T21:51:54.522Z,101329.00
2022-10-19T21:54:31.209Z,101330.40
2022-10-19T21:57:07.353Z,101332.20
2022-10-19T21:59:43.822Z,101336.60
2022-10-19T22:02:20.066Z,101327.00
2022-10-19T22:04:56.687Z,101326.40
2022-10-19T22:07:33.909Z,101320.20
2022-10-19T22:10:11.976Z,101318.20
2022-10-19T22:12:47.255Z,101308.00
2022-10-19T22:15:24.515Z,101309.00
2022-10-19T22:18:00.956Z,101308.00
2022-10-19T22:20:37.369Z,101318.40
2022-10-19T22:23:15.473Z,101315.20
2022-10-19T22:25:52.331Z,101315.20
2022-10-19T22:28:28.896Z,101314.00
2022-10-19T22:31:05.882Z,101312.40
2022-10-19T22:33:41.457Z,101313.40
2022-10-19T22:36:19.121Z,101311.60
2022-10-19T22:38:55.419Z,101311.40
2022-10-19T22:42:38.806Z,101318.00
2022-10-19T22:46:40.778Z,101313.40
2022-10-19T22:50:43.802Z,101315.40
2022-10-19T22:53:38.991Z,101321.80
2022-10-19T22:56:17.273Z,101323.40
2022-10-19T22:58:54.258Z,101322.00
2022-10-19T23:01:30.790Z,101321.80
2022-10-19T23:04:07.672Z,101325.20
2022-10-19T23:06:43.660Z,101323.40
2022-10-19T23:09:19.900Z,101330.20
2022-10-19T23:11:56.246Z,101327.80
2022-10-19T23:14:33.448Z,101327.40
2022-10-19T23:17:09.861Z,101328.60
2022-10-19T23:19:46.271Z,101326.80
2022-10-19T23:22:21.834Z,101322.20
2022-10-19T23:24:58.498Z,101317.60
2022-10-19T23:27:35.176Z,101314.40
2022-10-19T23:30:15.900Z,101316.60
2022-10-19T23:32:52.151Z,101316.00
2022-10-19T23:35:28.524Z,101315.20
2022-10-19T23:38:04.899Z,101320.60
2022-10-19T23:40:41.410Z,101323.00
2022-10-19T23:43:17.522Z,101324.20
2022-10-19T23:45:53.968Z,101322.40
2022-10-19T23:48:30.270Z,101323.20
2022-10-19T23:51:11.321Z,101324.80
2022-10-19T23:53:49.151Z,101323.20
2022-10-19T23:56:28.743Z,101327.80
2022-10-19T23:59:05.414Z,101325.00
